Terminal Aerodrome Forecast
Issued by NWS Cleveland, OH

Home | Current Version | Previous Version | Graphics & Text | Print | Product List | Glossary On
Versions: 1 2 3 4 5 6 7 8 9 10 11 12 13 14 15
000
FTUS41 KCLE 271700
TAFCAK
TAF
KCAK 271738Z 2718/2818 19012G20KT P6SM BKN250
     FM272300 18012KT P6SM BKN200
     FM280200 18010KT P6SM BKN150 WS020/23045KT
     FM281500 21015G25KT P6SM BKN040=

USA.gov is the U.S. government's official web portal to all federal, state and local government web resources and services.